Timber Mountain, Nevada Weather observations

Data are for 10 minute period ending at time listed.
 Day   Time   Solar   Ave.   Ave.  Ave.  Vector  Max.   Baro.   Total    
  of    of     Rad.   Air    Rel.  Wind   Wind   Wind  Press.  Precip.   
Year   Day            Temp.  Hum.  Speed  Dir.   Gust                    
2017   (PST)  Kw/m2    F      %     mph   deg.    mph    mb.     in.     
-------------------------------------------------------------------------
 324   19:00   0.00   48.9    18    0.6   186     2.3   814.7    0.00 
 324   20:00   0.00   50.3    28    2.1   341    10.7   815.2    0.00 
 324   21:00   0.00   51.9    36    3.4   327    11.5   815.5    0.00 
 324   22:00   0.00   54.3    40    4.6   346    13.6   815.8    0.00 
 324   23:00   0.00   52.8    43    3.7   346     9.5   816.2    0.00 
 325    0:00   0.00   52.1    45    3.0   311     9.0   816.2    0.00 
 325    1:00   0.00   52.9    47    3.5   356    11.8   816.2    0.00 
 325    2:00   0.00   54.0    46    4.5   347    14.5   816.5    0.00 
 325    3:00   0.00   54.0    46    5.4     5    14.0   816.8    0.00 
 325    4:00   0.00   54.3    43    5.1    21    12.6   816.9    0.00 
 325    5:00   0.00   53.9    47    6.8     7    13.3   817.2    0.00 
 325    6:00   0.00   52.2    52    5.1   358    14.0   817.8    0.00 
 325    7:00   0.01   52.6    54    6.2    20    15.1   818.4    0.00 
 325    8:00   0.09   54.7    50    8.7    16    18.0   819.0    0.00 
 325    9:00   0.19   57.0    45   10.5    13    17.6   819.4    0.00 
 325   10:00   0.40   59.5    41    9.4    14    19.0   819.8    0.00 
 325   11:00   0.55   64.3    30    6.7    14    15.1   819.8    0.00 
 325   12:00   0.49   66.4    26    6.7   346    14.9   819.4    0.00 
 325   13:00   0.45   66.0    26    8.6   338    17.5   819.0    0.00 
 325   14:00   0.49   67.6    23    7.7   356    16.7   819.0    0.00 
 325   15:00   0.22   66.4    24    5.7    15    11.4   818.9    0.00 
 325   16:00   0.08   63.8    26    2.8    12     8.8   818.7    0.00 
 325   17:00   0.02   60.4    30    3.1    76     7.2   818.7    0.00 
 325   18:00   0.00   53.9    37    4.9   113     8.5   819.0    0.00 

Return to Timber Mountain graphs page.


Western Regional Climate Center,wrcc@dri.edu